Time;durP1;ratioP1;P1;durP2;ratioP2;P2;SDS_P1;SDS_P2;PMS_P1;PMS_P2;Temp;Humidity;BMP_temperature;BMP_pressure;BME280_temperature;BME280_humidity;BME280_pressure;Samples;Min_cycle;Max_cycle;Signal;HPM_P1;HPM_P2
2021/08/15 00:00:21;;;;;;;19.82;11.03;;;;;;;20.06;58.36;100609.91;1643040;86;21078;-72
2021/08/15 00:02:47;;;;;;;14.18;10.78;;;;;;;20.13;57.23;100613.80;1687526;85;21123;-76
2021/08/15 00:05:14;;;;;;;13.25;10.90;;;;;;;20.16;57.74;100613.31;1691454;85;21545;-76
2021/08/15 00:07:40;;;;;;;20.77;10.55;;;;;;;20.25;57.53;100612.36;1690260;85;21047;-78
2021/08/15 00:10:09;;;;;;;15.00;10.88;;;;;;;20.27;58.46;100616.98;1633464;87;21571;-76
2021/08/15 00:12:36;;;;;;;12.68;9.98;;;;;;;20.34;58.34;100616.30;1618188;87;21039;-76
2021/08/15 00:15:07;;;;;;;15.93;10.50;;;;;;;20.46;58.29;100612.98;1688460;83;21526;-77
2021/08/15 00:17:33;;;;;;;18.15;11.38;;;;;;;20.61;58.35;100611.07;1681001;83;21120;-78
2021/08/15 00:20:03;;;;;;;18.05;10.68;;;;;;;20.75;56.99;100615.59;1683137;85;21018;-77
2021/08/15 00:22:30;;;;;;;15.72;10.88;;;;;;;20.68;57.03;100613.08;1690060;85;21090;-74
2021/08/15 00:24:56;;;;;;;;;;;;;;;20.59;56.52;100614.53;1692841;83;21073;-66
2021/08/15 00:27:22;;;;;;;13.62;8.98;;;;;;;20.53;57.24;100620.41;1681747;85;20191;-68
2021/08/15 00:29:49;;;;;;;13.18;8.80;;;;;;;20.47;56.88;100615.15;1674809;85;21070;-68
2021/08/15 00:32:15;;;;;;;10.78;9.08;;;;;;;20.48;58.35;100615.45;1682585;85;21014;-69
2021/08/15 00:34:42;;;;;;;16.85;9.65;;;;;;;20.57;57.32;100611.26;1680797;83;21556;-69
2021/08/15 00:37:09;;;;;;;10.03;7.85;;;;;;;20.55;56.78;100602.53;1652582;85;21047;-69
2021/08/15 00:39:36;;;;;;;9.90;7.97;;;;;;;20.50;58.91;100610.06;1660885;85;21081;-69
2021/08/15 00:42:03;;;;;;;;;;;;;;;20.67;59.43;100606.01;1651666;86;20989;-69
2021/08/15 00:44:29;;;;;;;15.23;8.13;;;;;;;20.93;57.25;100609.09;1652083;85;20099;-68
2021/08/15 00:46:57;;;;;;;13.22;9.13;;;;;;;20.99;56.31;100604.01;1676766;84;21034;-69
2021/08/15 00:49:23;;;;;;;10.70;8.30;;;;;;;20.97;56.21;100603.44;1679553;85;21044;-69
2021/08/15 00:51:49;;;;;;;13.83;9.48;;;;;;;20.98;55.83;100605.06;1674697;84;20998;-69
2021/08/15 00:54:16;;;;;;;;;;;;;;;20.91;54.98;100602.55;1674697;84;21060;-69
2021/08/15 00:56:51;;;;;;;10.68;8.03;;;;;;;20.79;55.09;100605.38;1676291;84;20099;-69
2021/08/15 00:59:18;;;;;;;8.58;7.60;;;;;;;20.63;55.37;100599.45;1644513;86;21620;-69
2021/08/15 01:01:53;;;;;;;13.45;8.03;;;;;;;20.53;57.41;100604.16;1657528;84;21044;-69
2021/08/15 01:04:22;;;;;;;12.47;8.33;;;;;;;20.57;55.92;100605.84;1662831;84;21092;-69
2021/08/15 01:06:52;;;;;;;11.50;8.78;;;;;;;20.52;55.84;100600.34;1639574;86;21533;-69
2021/08/15 01:09:22;;;;;;;9.45;8.15;;;;;;;20.42;55.56;100597.77;1635774;85;21050;-69
2021/08/15 01:11:50;;;;;;;10.90;8.40;;;;;;;20.25;56.08;100596.95;1638045;87;21048;-69
2021/08/15 01:14:18;;;;;;;9.65;8.38;;;;;;;20.07;56.20;100601.25;1660552;85;21010;-69
2021/08/15 01:16:46;;;;;;;9.70;7.70;;;;;;;19.93;57.03;100606.98;1672729;85;21235;-70
2021/08/15 01:19:14;;;;;;;10.38;8.00;;;;;;;19.86;57.59;100604.95;1661800;85;21068;-69
2021/08/15 01:21:43;;;;;;;10.75;7.90;;;;;;;19.85;57.28;100607.36;1666020;85;21477;-69
2021/08/15 01:24:12;;;;;;;11.10;7.90;;;;;;;19.81;58.18;100605.66;1662976;85;20975;-69
2021/08/15 01:26:42;;;;;;;14.00;8.78;;;;;;;19.81;58.06;100603.50;1654995;85;21179;-69
2021/08/15 01:29:08;;;;;;;16.27;8.40;;;;;;;19.84;58.07;100601.13;1634387;85;21057;-70
2021/08/15 01:31:36;;;;;;;11.38;7.58;;;;;;;19.92;57.95;100603.16;1646204;86;21141;-69
2021/08/15 01:34:02;;;;;;;10.13;8.53;;;;;;;19.92;57.96;100601.27;1640767;86;21040;-69
2021/08/15 01:36:28;;;;;;;15.23;7.92;;;;;;;19.89;58.21;100600.42;1623260;86;21040;-68
2021/08/15 01:38:56;;;;;;;11.55;8.58;;;;;;;19.86;58.54;100596.84;1604267;87;21600;-69
2021/08/15 01:41:23;;;;;;;9.98;8.68;;;;;;;19.83;58.26;100600.02;1618877;87;21002;-70
2021/08/15 01:43:58;;;;;;;8.95;8.05;;;;;;;19.73;58.53;100598.50;1620781;87;21089;-70
2021/08/15 01:46:29;;;;;;;9.68;8.70;;;;;;;19.65;59.05;100596.44;1628279;86;21042;-69
2021/08/15 01:48:58;;;;;;;9.68;7.47;;;;;;;19.58;59.23;100597.11;1628517;86;21169;-70
2021/08/15 01:51:24;;;;;;;13.32;6.97;;;;;;;19.60;60.51;100594.17;1630715;87;21578;-69
2021/08/15 01:53:54;;;;;;;12.18;8.30;;;;;;;19.74;60.66;100592.02;1658713;85;21053;-71
2021/08/15 01:56:24;;;;;;;10.58;9.23;;;;;;;19.95;59.73;100589.97;1648973;85;21089;-71
2021/08/15 01:58:50;;;;;;;12.95;8.85;;;;;;;20.02;58.41;100589.80;1644855;86;21035;-71
2021/08/15 02:01:20;;;;;;;10.08;8.03;;;;;;;19.97;59.07;100589.19;1620859;88;21074;-71
2021/08/15 02:03:49;;;;;;;10.10;8.58;;;;;;;19.96;59.05;100588.89;1646764;86;21023;-71
2021/08/15 02:06:17;;;;;;;12.90;9.10;;;;;;;19.94;58.63;100585.61;1646284;85;21011;-71
2021/08/15 02:08:45;;;;;;;9.10;8.18;;;;;;;19.79;58.63;100592.11;1630218;86;21031;-71
2021/08/15 02:11:11;;;;;;;11.48;9.03;;;;;;;19.56;59.56;100586.26;1637352;85;21050;-70
2021/08/15 02:13:40;;;;;;;12.80;8.00;;;;;;;19.40;59.74;100586.48;1639974;86;21075;-69
2021/08/15 02:16:08;;;;;;;12.07;8.08;;;;;;;19.31;60.66;100587.92;1646289;86;21172;-69
2021/08/15 02:18:36;;;;;;;8.28;7.47;;;;;;;19.45;62.28;100593.34;1648206;86;21054;-69
2021/08/15 02:21:03;;;;;;;7.95;7.17;;;;;;;19.78;60.97;100587.24;1654258;86;21585;-70
2021/08/15 02:23:29;;;;;;;13.48;7.47;;;;;;;19.90;60.11;100586.36;1700084;84;21055;-70
2021/08/15 02:25:56;;;;;;;12.88;7.62;;;;;;;19.88;61.10;100588.48;1705251;84;21165;-69
2021/08/15 02:28:22;;;;;;;;;;;;;;;19.98;60.19;100585.95;1708064;84;21467;-69
2021/08/15 02:30:48;;;;;;;10.15;8.48;;;;;;;20.05;59.92;100585.80;1702029;84;20661;-69
2021/08/15 02:33:15;;;;;;;17.02;8.98;;;;;;;19.98;59.15;100584.05;1669649;84;21062;-69
2021/08/15 02:35:43;;;;;;;8.90;7.78;;;;;;;19.84;60.15;100586.26;1629815;86;21044;-69
2021/08/15 02:38:11;;;;;;;8.70;7.75;;;;;;;19.69;60.55;100594.07;1629785;87;21528;-69
2021/08/15 02:40:37;;;;;;;8.83;7.83;;;;;;;19.59;59.92;100585.75;1634059;87;21117;-70
2021/08/15 02:43:04;;;;;;;9.35;8.40;;;;;;;19.44;59.96;100585.78;1638637;87;21089;-69
2021/08/15 02:45:30;;;;;;;15.80;8.80;;;;;;;19.26;60.36;100590.01;1645931;85;20995;-70
2021/08/15 02:47:56;;;;;;;;;;;;;;;19.05;61.27;100587.42;1679774;85;21007;-72
2021/08/15 02:50:24;;;;;;;13.78;9.20;;;;;;;18.89;62.12;100590.85;1650250;85;20142;-72
2021/08/15 02:52:50;;;;;;;10.58;7.97;;;;;;;18.70;62.85;100591.48;1649909;85;21083;-72
2021/08/15 02:55:18;;;;;;;9.08;7.62;;;;;;;18.71;64.24;100589.09;1645315;85;21085;-72
2021/08/15 02:57:46;;;;;;;9.23;8.33;;;;;;;18.80;62.73;100592.58;1606576;88;21104;-71
2021/08/15 03:00:14;;;;;;;12.68;8.63;;;;;;;18.83;62.43;100593.97;1619686;88;21476;-66
2021/08/15 03:02:42;;;;;;;11.93;9.35;;;;;;;18.73;62.53;100583.74;1620956;87;21067;-66
2021/08/15 03:05:10;;;;;;;12.93;9.80;;;;;;;18.60;62.98;100589.39;1609756;88;21015;-66
2021/08/15 03:07:37;;;;;;;14.55;9.75;;;;;;;18.45;63.54;100586.62;1604841;88;21049;-66
2021/08/15 03:10:07;;;;;;;10.10;8.48;;;;;;;18.37;64.24;100588.33;1596796;88;21590;-66
2021/08/15 03:12:34;;;;;;;11.53;10.00;;;;;;;18.44;65.49;100586.34;1606470;87;21076;-66
2021/08/15 03:15:00;;;;;;;12.25;8.30;;;;;;;18.90;63.91;100585.75;1603277;89;21041;-66
2021/08/15 03:17:28;;;;;;;14.90;9.83;;;;;;;19.35;63.57;100583.70;1609928;89;21180;-67
2021/08/15 03:19:54;;;;;;;12.33;9.10;;;;;;;19.93;62.00;100580.44;1618442;89;20993;-68
2021/08/15 03:22:21;;;;;;;;;;;;;;;20.42;59.76;100578.00;1623464;88;21094;-67
2021/08/15 03:24:47;;;;;;;11.45;8.53;;;;;;;20.70;59.13;100580.30;1632522;87;20183;-69
2021/08/15 03:27:15;;;;;;;10.80;8.63;;;;;;;21.14;58.37;100577.64;1632095;86;21027;-69
2021/08/15 03:29:41;;;;;;;8.30;7.55;;;;;;;21.72;56.21;100579.38;1632810;87;21494;-69
2021/08/15 03:32:08;;;;;;;7.65;6.87;;;;;;;22.18;54.95;100577.05;1632861;88;21078;-69
2021/08/15 03:34:34;;;;;;;9.00;8.08;;;;;;;22.65;53.43;100574.95;1632115;85;21131;-68
2021/08/15 03:37:01;;;;;;;10.48;8.65;;;;;;;23.01;51.78;100574.31;1603259;87;21097;-68
2021/08/15 03:39:33;;;;;;;10.55;8.40;;;;;;;23.27;51.10;100582.06;1621446;87;21046;-69
2021/08/15 03:42:00;;;;;;;8.28;7.47;;;;;;;23.51;50.65;100583.77;1645209;85;21051;-69
2021/08/15 03:44:29;;;;;;;10.78;7.00;;;;;;;23.87;49.79;100588.73;1612764;86;21117;-68
2021/08/15 03:46:56;;;;;;;8.60;7.65;;;;;;;24.26;49.22;100580.03;1618522;87;21140;-69
2021/08/15 03:49:26;;;;;;;7.75;6.65;;;;;;;24.71;47.67;100574.78;1600712;87;21023;-70
2021/08/15 03:51:55;;;;;;;9.60;6.97;;;;;;;25.08;46.96;100579.57;1617608;87;21079;-70
2021/08/15 03:54:22;;;;;;;8.70;6.97;;;;;;;25.32;46.07;100574.31;1608050;88;21134;-70
2021/08/15 03:56:51;;;;;;;7.85;6.92;;;;;;;25.59;45.55;100575.22;1585476;87;21029;-70
2021/08/15 03:59:18;;;;;;;8.33;7.55;;;;;;;25.82;44.90;100569.59;1615591;88;21129;-70
2021/08/15 04:01:46;;;;;;;9.25;7.85;;;;;;;25.96;44.50;100568.44;1618685;88;21041;-70
2021/08/15 04:04:12;;;;;;;8.35;7.33;;;;;;;26.13;43.98;100567.47;1594221;88;21031;-69
2021/08/15 04:06:39;;;;;;;9.95;7.62;;;;;;;26.26;43.45;100564.62;1620039;87;21097;-70
2021/08/15 04:09:06;;;;;;;8.13;7.42;;;;;;;26.41;42.90;100569.13;1608274;87;21132;-70
2021/08/15 04:11:34;;;;;;;11.60;7.17;;;;;;;26.46;43.12;100566.88;1619023;87;20993;-68
2021/08/15 04:14:00;;;;;;;11.15;7.87;;;;;;;26.50;42.88;100563.26;1615071;87;21043;-68
2021/08/15 04:16:27;;;;;;;10.18;7.10;;;;;;;26.55;42.55;100563.77;1603126;87;21219;-69
2021/08/15 04:18:55;;;;;;;11.40;7.17;;;;;;;26.68;42.37;100559.56;1609051;87;21118;-69
2021/08/15 04:21:21;;;;;;;10.85;7.25;;;;;;;26.87;42.07;100559.05;1610627;87;21009;-69
2021/08/15 04:23:49;;;;;;;9.53;7.45;;;;;;;27.16;41.25;100563.08;1619011;87;21076;-69
2021/08/15 04:26:18;;;;;;;8.15;6.75;;;;;;;27.44;40.44;100563.80;1639966;86;21116;-69
2021/08/15 04:28:46;;;;;;;15.20;6.67;;;;;;;27.76;40.27;100569.88;1628899;86;21169;-69
2021/08/15 04:31:12;;;;;;;9.33;7.20;;;;;;;28.04;39.75;100572.76;1638417;86;21052;-69
2021/08/15 04:33:39;;;;;;;8.50;7.33;;;;;;;28.23;39.03;100561.73;1632752;86;21150;-69
2021/08/15 04:36:05;;;;;;;7.12;5.33;;;;;;;28.38;38.66;100566.94;1626709;86;21045;-68
2021/08/15 04:38:34;;;;;;;11.65;5.97;;;;;;;28.62;38.16;100563.25;1629127;86;21045;-70
2021/08/15 04:41:01;;;;;;;7.12;6.15;;;;;;;28.87;37.81;100555.86;1644190;86;21068;-64
2021/08/15 04:43:28;;;;;;;7.28;5.83;;;;;;;29.14;37.09;100563.02;1626535;86;21164;-64
2021/08/15 04:45:54;;;;;;;6.55;5.92;;;;;;;29.41;36.80;100562.96;1649043;84;21597;-64
2021/08/15 04:48:20;;;;;;;9.33;5.83;;;;;;;29.56;35.55;100558.25;1664270;84;21652;-69
2021/08/15 04:50:46;;;;;;;7.35;5.75;;;;;;;29.62;34.88;100559.17;1651365;86;21042;-69
2021/08/15 04:53:12;;;;;;;9.23;6.12;;;;;;;29.79;34.87;100555.77;1632610;86;21038;-65
2021/08/15 04:55:39;;;;;;;8.15;6.58;;;;;;;29.79;34.87;100555.77;1651359;86;21109;-70
2021/08/15 04:58:06;;;;;;;10.80;7.42;;;;;;;29.95;34.32;100549.89;1628193;88;21075;-71
2021/08/15 05:00:33;;;;;;;7.10;5.35;;;;;;;30.17;34.31;100551.80;1620341;87;21060;-72
2021/08/15 05:03:00;;;;;;;8.63;5.20;;;;;;;30.44;33.15;100552.19;1636313;87;21176;-72
2021/08/15 05:05:26;;;;;;;7.33;6.10;;;;;;;30.65;32.66;100557.96;1620059;87;21653;-66
2021/08/15 05:07:54;;;;;;;6.50;5.83;;;;;;;30.79;31.96;100553.70;1633423;87;21583;-75
2021/08/15 05:10:20;;;;;;;6.95;4.47;;;;;;;30.95;32.20;100547.20;1625858;86;21088;-70
2021/08/15 05:12:46;;;;;;;9.23;5.83;;;;;;;31.21;31.66;100545.32;1637214;86;21095;-67
2021/08/15 05:15:12;;;;;;;5.60;4.87;;;;;;;31.38;30.96;100546.44;1633671;86;21502;-69
2021/08/15 05:17:39;;;;;;;5.53;5.03;;;;;;;31.49;30.85;100546.39;1609376;87;21047;-69
2021/08/15 05:20:08;;;;;;;5.15;4.35;;;;;;;31.72;30.68;100543.45;1623843;86;21018;-69
2021/08/15 05:22:35;;;;;;;7.03;4.65;;;;;;;31.92;30.32;100542.77;1617442;86;21047;-70
2021/08/15 05:25:01;;;;;;;4.75;4.35;;;;;;;32.12;30.46;100537.17;1627576;86;21128;-68
2021/08/15 05:27:27;;;;;;;9.33;4.58;;;;;;;32.26;29.72;100536.95;1649670;85;21141;-70
2021/08/15 05:29:54;;;;;;;5.25;4.35;;;;;;;32.18;29.45;100532.28;1656515;85;21119;-70
2021/08/15 05:32:21;;;;;;;4.87;4.45;;;;;;;32.06;29.74;100539.88;1643730;85;21617;-71
2021/08/15 05:34:48;;;;;;;7.42;5.33;;;;;;;31.98;29.96;100537.32;1628110;85;21021;-74
2021/08/15 05:37:15;;;;;;;6.45;5.10;;;;;;;31.91;29.75;100537.04;1636985;86;21016;-70
2021/08/15 05:39:41;;;;;;;6.10;3.92;;;;;;;31.84;30.51;100533.17;1584110;88;21057;-71
2021/08/15 05:42:09;;;;;;;6.92;4.15;;;;;;;31.80;29.74;100530.25;1598996;88;21052;-71
2021/08/15 05:44:37;;;;;;;7.10;4.20;;;;;;;31.78;29.93;100528.39;1619679;86;21076;-71
2021/08/15 05:47:04;;;;;;;11.97;4.45;;;;;;;31.77;30.18;100533.08;1622285;88;21134;-71
2021/08/15 05:49:32;;;;;;;4.67;4.22;;;;;;;31.77;29.88;100528.14;1622406;88;21144;-70
2021/08/15 05:51:59;;;;;;;8.50;4.40;;;;;;;31.68;29.72;100531.47;1605163;88;20984;-70
2021/08/15 05:54:27;;;;;;;6.37;3.62;;;;;;;31.53;29.98;100521.77;1622537;88;21578;-68
2021/08/15 05:56:55;;;;;;;10.40;3.95;;;;;;;31.41;29.87;100528.70;1642246;86;21033;-70
2021/08/15 05:59:21;;;;;;;9.55;4.28;;;;;;;31.40;29.95;100527.65;1645130;87;21042;-69
2021/08/15 06:01:47;;;;;;;9.95;4.03;;;;;;;31.40;29.14;100526.27;1636850;85;21543;-72
2021/08/15 06:04:13;;;;;;;6.58;3.58;;;;;;;31.44;29.46;100525.89;1650896;86;21544;-70
2021/08/15 06:06:40;;;;;;;8.00;4.22;;;;;;;31.39;29.68;100519.96;1652325;86;21070;-68
2021/08/15 06:09:08;;;;;;;4.85;4.03;;;;;;;31.30;29.58;100527.98;1651213;86;21154;-68
2021/08/15 06:11:34;;;;;;;6.83;4.17;;;;;;;31.24;30.29;100523.20;1651674;85;21045;-70
2021/08/15 06:14:02;;;;;;;7.50;5.22;;;;;;;31.38;29.88;100518.36;1643254;85;20978;-68
2021/08/15 06:16:30;;;;;;;6.55;3.55;;;;;;;31.50;30.02;100514.97;1635860;87;21137;-68
2021/08/15 06:18:56;;;;;;;4.00;3.12;;;;;;;31.63;29.23;100520.87;1628161;86;21038;-68
2021/08/15 06:21:24;;;;;;;7.72;4.33;;;;;;;31.53;29.28;100515.70;1649235;87;21045;-67
2021/08/15 06:23:51;;;;;;;7.05;4.62;;;;;;;31.40;29.79;100519.38;1651352;85;21062;-67
2021/08/15 06:26:19;;;;;;;5.95;3.98;;;;;;;31.18;29.95;100521.17;1641885;87;21166;-67
2021/08/15 06:28:46;;;;;;;8.48;4.05;;;;;;;31.10;30.38;100519.23;1646851;87;21030;-67
2021/08/15 06:31:12;;;;;;;7.15;3.65;;;;;;;31.17;30.34;100519.55;1643391;86;22110;-67
2021/08/15 06:33:38;;;;;;;9.28;4.55;;;;;;;31.26;30.25;100518.76;1653068;85;21121;-67
2021/08/15 06:36:04;;;;;;;5.12;3.58;;;;;;;31.37;30.00;100518.10;1634059;87;21006;-67
2021/08/15 06:38:31;;;;;;;5.25;3.37;;;;;;;31.40;29.77;100511.13;1650102;85;21104;-67
2021/08/15 06:40:57;;;;;;;5.72;3.40;;;;;;;31.38;29.70;100512.84;1659470;85;21547;-66
2021/08/15 06:43:26;;;;;;;7.25;3.40;;;;;;;31.36;29.78;100517.88;1603809;87;21070;-67
2021/08/15 06:45:54;;;;;;;13.08;3.70;;;;;;;31.43;29.71;100510.48;1632037;86;21110;-64
2021/08/15 06:48:23;;;;;;;5.05;3.60;;;;;;;31.50;29.63;100514.97;1630616;86;21655;-62
2021/08/15 06:51:02;;;;;;;11.05;2.83;;;;;;;31.60;29.60;100511.06;1633875;86;21093;-66
2021/08/15 06:53:31;;;;;;;5.08;3.62;;;;;;;31.70;28.90;100509.91;1634960;86;21081;-63
2021/08/15 06:55:59;;;;;;;8.10;3.67;;;;;;;31.57;29.47;100511.70;1621845;86;21193;-63
2021/08/15 06:58:27;;;;;;;4.17;3.22;;;;;;;31.58;29.47;100511.96;1636255;85;21051;-63
2021/08/15 07:00:54;;;;;;;4.15;3.10;;;;;;;31.61;29.58;100509.37;1629911;87;21614;-65
2021/08/15 07:03:20;;;;;;;7.35;3.27;;;;;;;31.56;29.17;100506.77;1625145;87;21057;-62
2021/08/15 07:05:47;;;;;;;4.72;2.75;;;;;;;31.36;30.00;100501.35;1618380;87;21080;-63
2021/08/15 07:08:13;;;;;;;4.83;3.55;;;;;;;31.41;30.00;100507.25;1631250;86;21065;-63
2021/08/15 07:10:40;;;;;;;8.50;3.80;;;;;;;31.53;29.73;100503.86;1639484;86;21044;-63
2021/08/15 07:13:08;;;;;;;4.42;3.40;;;;;;;31.56;29.47;100508.16;1630718;86;21049;-62
2021/08/15 07:15:35;;;;;;;3.25;2.95;;;;;;;31.42;29.92;100502.00;1642609;85;21122;-63
2021/08/15 07:18:04;;;;;;;10.72;2.95;;;;;;;31.24;30.07;100503.93;1627962;88;21019;-63
2021/08/15 07:20:30;;;;;;;4.92;2.75;;;;;;;31.03;30.30;100507.89;1629030;86;21014;-62
2021/08/15 07:22:58;;;;;;;2.70;2.50;;;;;;;30.84;30.74;100506.78;1633650;87;21042;-55
2021/08/15 07:25:28;;;;;;;3.92;2.92;;;;;;;30.68;31.01;100511.11;1649292;86;21169;-62
2021/08/15 07:27:55;;;;;;;3.33;2.45;;;;;;;30.37;31.58;100508.67;1628107;87;21089;-59
2021/08/15 07:30:21;;;;;;;4.60;2.15;;;;;;;30.15;31.90;100504.01;1633915;86;21521;-60
2021/08/15 07:32:55;;;;;;;3.67;2.42;;;;;;;29.94;32.18;100501.56;1631908;86;20998;-61
2021/08/15 07:35:25;;;;;;;2.50;2.22;;;;;;;29.70;32.59;100501.30;1604495;88;21122;-59
2021/08/15 07:37:52;;;;;;;9.43;2.10;;;;;;;29.38;32.98;100503.17;1624898;87;21660;-61
2021/08/15 07:40:19;;;;;;;5.03;2.60;;;;;;;29.16;33.44;100506.72;1635195;86;20995;-59
2021/08/15 07:42:50;;;;;;;6.15;2.45;;;;;;;28.89;34.15;100507.55;1645707;86;20995;-62
2021/08/15 07:45:19;;;;;;;2.92;1.92;;;;;;;28.83;34.29;100502.73;1627450;86;20985;-61
2021/08/15 07:47:46;;;;;;;3.25;2.95;;;;;;;28.84;34.52;100498.05;1616691;86;20981;-61
2021/08/15 07:52:57;;;;;;;6.92;2.10;;;;;;;28.88;34.42;100492.22;1796998;78;22812;-60
2021/08/15 07:55:24;;;;;;;2.35;2.02;;;;;;;28.82;34.56;100496.17;1747513;80;21051;-61
2021/08/15 07:57:50;;;;;;;5.62;2.50;;;;;;;28.82;34.32;100495.63;1681490;83;21063;-61
2021/08/15 08:00:17;;;;;;;3.60;2.10;;;;;;;28.80;34.39;100499.25;1697298;83;21037;-60
2021/08/15 08:02:43;;;;;;;5.42;2.52;;;;;;;28.82;34.38;100498.37;1655925;84;21025;-60
2021/08/15 08:05:09;;;;;;;5.10;2.60;;;;;;;28.78;34.17;100493.23;1649298;85;21026;-60
2021/08/15 08:07:36;;;;;;;10.48;2.65;;;;;;;28.63;34.69;100494.39;1633889;85;21119;-61
2021/08/15 08:10:04;;;;;;;8.53;2.98;;;;;;;28.56;35.14;100491.24;1648420;85;20990;-61
2021/08/15 08:12:30;;;;;;;5.95;2.50;;;;;;;28.48;34.90;100489.16;1616220;85;21171;-61
2021/08/15 08:14:56;;;;;;;14.23;2.50;;;;;;;28.29;35.44;100487.89;1631543;85;21098;-61
2021/08/15 08:17:22;;;;;;;7.22;2.85;;;;;;;28.22;35.66;100486.94;1628123;87;21109;-60
2021/08/15 08:19:48;;;;;;;9.23;2.52;;;;;;;28.23;35.86;100493.23;1601378;88;21049;-59
2021/08/15 08:22:15;;;;;;;4.35;2.62;;;;;;;28.22;36.07;100495.70;1606008;88;21033;-60
2021/08/15 08:24:42;;;;;;;3.50;2.00;;;;;;;28.24;36.02;100492.13;1568495;90;21152;-62
2021/08/15 08:27:09;;;;;;;7.47;2.65;;;;;;;28.25;36.22;100494.53;1562753;90;21099;-63
2021/08/15 08:29:37;;;;;;;5.78;2.35;;;;;;;28.28;35.99;100486.28;1567124;90;21124;-60
2021/08/15 08:32:05;;;;;;;3.72;2.62;;;;;;;28.38;35.94;100488.81;1549198;90;21123;-60
2021/08/15 08:34:32;;;;;;;3.77;1.87;;;;;;;28.46;35.30;100492.23;1595477;87;21111;-62
2021/08/15 08:36:59;;;;;;;8.18;2.08;;;;;;;28.54;35.09;100486.06;1608111;87;21562;-60
2021/08/15 08:39:29;;;;;;;4.30;2.80;;;;;;;28.60;35.19;100483.22;1617871;87;21083;-60
2021/08/15 08:41:55;;;;;;;2.85;2.50;;;;;;;28.63;35.55;100490.81;1620865;87;21017;-61
2021/08/15 08:44:23;;;;;;;2.80;2.60;;;;;;;28.69;34.92;100492.35;1607936;86;21545;-60
2021/08/15 08:46:50;;;;;;;10.32;2.42;;;;;;;28.66;34.76;100485.53;1587785;88;21595;-61
2021/08/15 08:49:18;;;;;;;6.10;2.20;;;;;;;28.62;34.77;100478.23;1586297;88;21053;-60
2021/08/15 08:51:47;;;;;;;3.08;1.87;;;;;;;28.61;35.03;100475.23;1598383;88;21065;-61
2021/08/15 08:54:14;;;;;;;2.60;2.12;;;;;;;28.64;34.88;100474.63;1661510;85;21048;-62
2021/08/15 08:56:40;;;;;;;3.27;2.42;;;;;;;28.66;34.92;100469.64;1628660;85;21022;-61
2021/08/15 08:59:06;;;;;;;3.67;1.65;;;;;;;28.64;35.06;100463.09;1628819;86;21528;-60
2021/08/15 09:01:32;;;;;;;2.72;2.02;;;;;;;28.65;35.31;100466.63;1637912;86;21107;-60
2021/08/15 09:04:00;;;;;;;2.75;2.55;;;;;;;28.70;34.93;100462.42;1645339;85;21036;-60
2021/08/15 09:06:28;;;;;;;1.82;1.65;;;;;;;28.73;34.43;100460.45;1650499;85;21583;-61
2021/08/15 09:08:55;;;;;;;2.05;1.82;;;;;;;28.71;33.27;100454.46;1647266;85;22274;-61
2021/08/15 09:11:24;;;;;;;3.98;2.15;;;;;;;28.70;33.61;100451.45;1654193;85;20993;-61
2021/08/15 09:14:09;;;;;;;7.28;1.80;;;;;;;28.73;33.78;100451.66;1665135;85;22234;-61
2021/08/15 09:16:59;;;;;;;2.10;1.82;;;;;;;28.82;33.73;100445.42;1663886;85;21064;-60
2021/08/15 09:19:44;;;;;;;2.27;1.55;;;;;;;28.92;33.88;100445.22;1655861;84;21528;-61
2021/08/15 09:22:24;;;;;;;2.15;1.65;;;;;;;29.03;33.68;100432.88;1653803;85;21518;-65
2021/08/15 09:25:01;;;;;;;5.50;1.65;;;;;;;29.09;33.60;100434.95;1614297;87;21677;-64
2021/08/15 09:27:44;;;;;;;2.37;2.15;;;;;;;29.09;32.68;100429.46;1618222;87;21027;-65
2021/08/15 09:30:29;;;;;;;1.87;1.75;;;;;;;29.06;32.81;100432.24;1617223;87;20989;-64
2021/08/15 09:33:05;;;;;;;4.25;2.00;;;;;;;29.07;33.05;100423.47;1621641;87;21106;-64
2021/08/15 09:35:39;;;;;;;5.45;2.08;;;;;;;29.12;33.05;100423.33;1614070;87;21123;-64
2021/08/15 09:38:12;;;;;;;3.90;2.08;;;;;;;29.16;33.12;100418.90;1616775;87;21015;-64
2021/08/15 09:40:46;;;;;;;3.62;1.95;;;;;;;29.14;32.96;100412.91;1620868;87;21078;-64
2021/08/15 09:43:20;;;;;;;2.95;1.62;;;;;;;29.14;32.97;100411.54;1631555;87;21027;-65
2021/08/15 09:45:53;;;;;;;1.55;1.45;;;;;;;29.17;32.80;100415.58;1640673;86;21053;-64
2021/08/15 09:48:40;;;;;;;5.83;2.25;;;;;;;29.14;32.87;100417.03;1647993;84;21027;-65
2021/08/15 09:51:20;;;;;;;8.38;1.98;;;;;;;29.15;32.90;100413.14;1654789;84;21054;-65
2021/08/15 09:54:00;;;;;;;2.22;1.80;;;;;;;29.21;32.71;100409.72;1665088;84;21535;-65
2021/08/15 09:56:39;;;;;;;5.22;1.75;;;;;;;29.29;32.43;100408.95;1650637;84;21024;-65
2021/08/15 09:59:19;;;;;;;4.85;1.98;;;;;;;29.38;32.02;100407.65;1634901;86;21090;-65
2021/08/15 10:01:53;;;;;;;2.70;2.10;;;;;;;29.39;31.99;100404.59;1649738;85;21026;-65
2021/08/15 10:04:23;;;;;;;4.45;2.37;;;;;;;29.35;31.96;100405.52;1656354;85;21032;-65
2021/08/15 10:06:57;;;;;;;3.42;2.08;;;;;;;29.27;32.17;100394.19;1608834;87;21540;-65
2021/08/15 10:09:25;;;;;;;3.72;1.92;;;;;;;29.28;32.25;100394.42;1622031;87;21572;-65
2021/08/15 10:11:52;;;;;;;6.85;2.10;;;;;;;29.30;32.12;100393.55;1644787;85;21119;-65
2021/08/15 10:14:20;;;;;;;3.40;1.60;;;;;;;29.29;32.16;100383.71;1642544;85;22001;-65
2021/08/15 10:17:02;;;;;;;5.55;1.92;;;;;;;28.93;32.13;100322.83;1645943;85;21583;-65
2021/08/15 10:19:47;;;;;;;2.37;2.02;;;;;;;29.48;32.08;100384.06;1652686;85;21092;-65
2021/08/15 10:22:29;;;;;;;2.70;2.60;;;;;;;29.57;31.34;100374.48;1645080;85;21021;-65
2021/08/15 10:24:59;;;;;;;2.30;1.57;;;;;;;29.57;31.33;100371.16;1626654;86;21134;-65
2021/08/15 10:27:45;;;;;;;3.85;2.65;;;;;;;29.62;31.37;100373.78;1645267;85;21080;-65
2021/08/15 10:30:24;;;;;;;;;;;;;;;29.61;31.49;100372.18;1628315;86;20987;-65
2021/08/15 10:33:06;;;;;;;3.25;2.10;;;;;;;29.48;31.54;100365.65;1613308;87;20130;-66
2021/08/15 10:35:35;;;;;;;3.67;2.45;;;;;;;29.33;31.66;100365.22;1613740;87;21017;-65
2021/08/15 10:38:10;;;;;;;2.87;2.08;;;;;;;29.27;31.87;100358.51;1644766;85;21118;-65
2021/08/15 10:40:47;;;;;;;5.35;1.95;;;;;;;29.33;32.09;100359.73;1636498;86;21539;-65
2021/08/15 10:43:30;;;;;;;4.80;2.17;;;;;;;29.33;31.82;100358.36;1645406;86;21101;-65
2021/08/15 10:46:17;;;;;;;2.55;1.95;;;;;;;29.28;31.53;100361.48;1642827;85;21476;-65
2021/08/15 10:49:04;;;;;;;2.67;2.37;;;;;;;29.22;31.68;100360.00;1651945;85;21512;-64
2021/08/15 10:51:48;;;;;;;2.45;2.10;;;;;;;29.16;31.90;100354.94;1658567;85;21461;-66
2021/08/15 10:54:42;;;;;;;2.30;2.17;;;;;;;29.19;32.06;100349.64;1649861;85;21579;-65
2021/08/15 10:57:08;;;;;;;5.97;2.17;;;;;;;29.26;32.09;100351.38;1649380;85;21059;-65
2021/08/15 10:59:41;;;;;;;3.50;2.25;;;;;;;29.38;32.12;100348.63;1654701;85;20994;-65
2021/08/15 11:02:16;;;;;;;5.17;2.35;;;;;;;29.48;32.22;100346.42;1685174;83;21108;-65
2021/08/15 11:05:00;;;;;;;;;;;;;;;29.55;31.51;100339.09;1689409;83;20966;-65
2021/08/15 11:07:37;;;;;;;2.85;2.27;;;;;;;29.55;31.44;100341.04;1688639;83;20144;-65
2021/08/15 11:10:09;;;;;;;2.58;2.37;;;;;;;29.37;31.54;100342.91;1676204;83;21014;-65
2021/08/15 11:13:16;;;;;;;5.17;2.50;;;;;;;29.23;31.55;100334.16;1671801;83;21042;-65
2021/08/15 11:15:44;;;;;;;9.00;3.12;;;;;;;29.14;31.89;100337.98;1661055;85;21121;-65
2021/08/15 11:18:13;;;;;;;2.58;1.95;;;;;;;29.09;31.93;100330.67;1617197;86;21006;-65
2021/08/15 11:20:47;;;;;;;3.30;2.58;;;;;;;29.07;32.17;100336.47;1663760;85;21049;-65
2021/08/15 11:23:21;;;;;;;3.10;2.80;;;;;;;29.13;32.16;100327.58;1624200;86;21505;-65
2021/08/15 11:25:48;;;;;;;3.47;2.37;;;;;;;29.15;31.55;100328.06;1661648;85;21161;-64
2021/08/15 11:28:16;;;;;;;5.97;3.45;;;;;;;29.13;31.87;100328.95;1671014;85;21090;-64
2021/08/15 11:30:43;;;;;;;3.70;2.70;;;;;;;29.17;32.11;100325.81;1637356;86;21130;-65
2021/08/15 11:33:13;;;;;;;11.40;3.60;;;;;;;29.24;32.03;100326.76;1668236;84;20959;-65
2021/08/15 11:35:45;;;;;;;4.85;3.27;;;;;;;29.29;32.10;100316.45;1684029;84;21052;-65